EDDG 210250Z 00000KT CAVOK 06/06 Q1027 NOSIG EDDG 210220Z 16003KT 9999 1200W R07/P2000N BCFG NSC 06/06 Q1027 TEMPO 3000 EDDG 210150Z 25001KT 9999 1300W R07/1300U BCFG NSC 07/07 Q1027 TEMPO 3000 EDDG 210120Z VRB01KT 9999 1300W R07/1500D BCFG NSC 07/06 Q1027 TEMPO 3000 EDDG 210050Z VRB01KT CAVOK 07/07 Q1027 NOSIG EDDG 210020Z VRB01KT CAVOK 08/07 Q1027 NOSIG EDDG 202350Z VRB01KT CAVOK 09/08 Q1027 NOSIG EDDG 202320Z VRB02KT CAVOK 10/08 Q1027 NOSIG EDDG 202250Z VRB02KT CAVOK 11/08 Q1026 NOSIG EDDG 202220Z VRB01KT CAVOK 11/08 Q1026 NOSIG EDDG 202150Z 05003KT 360V090 CAVOK 12/08 Q1026 NOSIG EDDG 202120Z VRB02KT CAVOK 11/08 Q1026 NOSIG EDDG 202050Z VRB02KT CAVOK 11/08 Q1026 NOSIG EDDG 202020Z VRB02KT CAVOK 11/08 Q1026 NOSIG EDDG 201950Z 02004KT 350V080 CAVOK 11/07 Q1025 NOSIG EDDG 201920Z VRB02KT CAVOK 11/08 Q1025 NOSIG EDDG 201850Z VRB02KT CAVOK 11/07 Q1025 NOSIG EDDG 201820Z VRB02KT CAVOK 11/07 Q1024 NOSIG EDDG 201750Z VRB02KT CAVOK 12/08 Q1024 NOSIG EDDG 201720Z VRB02KT CAVOK 12/07 Q1024 NOSIG EDDG 201650Z 05003KT 360V110 9999 BKN049 13/07 Q1023 NOSIG EDDG 201620Z 03005KT 010V070 9999 FEW040 BKN047 14/07 Q1023 NOSIG EDDG 201550Z 07003KT 020V140 9999 FEW040 BKN048 14/06 Q1023 NOSIG EDDG 201520Z 05004KT 010V120 9999 BKN048 14/06 Q1023 NOSIG EDDG 201450Z 04005KT 350V110 9999 BKN048 14/06 Q1023 NOSIG EDDG 201420Z 03007KT 010V090 9999 BKN047 15/06 Q1023 NOSIG EDDG 201350Z 07004KT 010V140 9999 BKN049 15/05 Q1023 NOSIG EDDG 201320Z 06004KT 020V130 9999 BKN048 15/05 Q1022 NOSIG EDDG 201250Z 08004KT 020V140 9999 BKN048 14/05 Q1022 NOSIG EDDG 201220Z 05005KT 360V120 9999 BKN047 15/05 Q1022 NOSIG EDDG 201150Z 04008KT 010V110 9999 BKN047 15/05 Q1022 NOSIG EDDG 201120Z VRB06KT 9999 BKN047 15/05 Q1022 NOSIG EDDG 201050Z 07004KT 360V140 9999 BKN046 14/05 Q1022 NOSIG EDDG 201020Z 06006KT 350V130 9999 BKN048 14/05 Q1022 NOSIG EDDG 200950Z VRB07KT 9999 FEW038 15/06 Q1022 NOSIG EDDG 200920Z 09007KT 030V150 CAVOK 15/07 Q1021 NOSIG EDDG 200850Z 08005KT 010V140 9999 BKN049 14/08 Q1021 NOSIG EDDG 200820Z VRB04KT 9999 BKN048 13/09 Q1021 NOSIG EDDG 200750Z 05003KT 340V120 9999 BKN048 13/10 Q1021 NOSIG EDDG 200720Z 06003KT 340V130 9999 BKN048 12/09 Q1020 NOSIG EDDG 200650Z 07003KT 360V140 9999 BKN048 11/09 Q1020 NOSIG EDDG 200620Z 06003KT 350V160 9999 BKN048 11/09 Q1020 NOSIG EDDG 200550Z 05003KT 010V100 9999 BKN046 10/08 Q1020 NOSIG EDDG 200520Z 05003KT 020V080 9999 BKN046 09/07 Q1020 NOSIG EDDG 200450Z 06003KT 010V100 9999 FEW045 09/07 Q1019 NOSIG EDDG 200420Z 05004KT 020V080 9999 FEW040 09/07 Q1019 NOSIG EDDG 200350Z 06003KT 030V100 9999 FEW040 09/07 Q1019 NOSIG EDDG 200320Z 06003KT 020V100 9999 FEW040 10/07 Q1019 NOSIG EDDG 200250Z 06003KT 9999 FEW040 10/07 Q1019 NOSIG EDDG 200220Z 06003KT 030V090 9999 FEW042 10/08 Q1019 NOSIG EDDG 200150Z 05003KT 9999 FEW042 11/08 Q1019 NOSIG EDDG 200120Z 05003KT 020V100 9999 BKN042 12/08 Q1019 NOSIG EDDG 200050Z 05003KT 020V100 9999 BKN042 12/08 Q1019 NOSIG EDDG 200020Z VRB02KT 9999 BKN042 12/08 Q1019 NOSIG EDDG 192350Z 06003KT 030V110 9999 BKN040 12/08 Q1019 NOSIG EDDG 192320Z VRB02KT 9999 OVC040 12/08 Q1019 NOSIG EDDG 192250Z VRB02KT 9999 OVC038 12/08 Q1019 NOSIG EDDG 192220Z VRB02KT 9999 BKN037 12/08 Q1018 NOSIG EDDG 192150Z VRB02KT 9999 BKN036 13/08 Q1018 NOSIG EDDG 192120Z VRB02KT 9999 OVC035 13/07 Q1018 NOSIG EDDG 192050Z VRB03KT 9999 OVC035 13/07 Q1018 NOSIG EDDG 192020Z VRB03KT 9999 OVC035 13/08 Q1018 NOSIG EDDG 191950Z 08004KT 020V130 9999 OVC035 13/08 Q1018 NOSIG EDDG 191920Z 08004KT 010V160 9999 BKN038 13/08 Q1018 NOSIG EDDG 191850Z VRB02KT 9999 BKN038 13/08 Q1018 NOSIG EDDG 191820Z 07003KT 360V140 9999 BKN038 13/08 Q1017 NOSIG EDDG 191750Z VRB02KT 9999 BKN038 14/09 Q1017 NOSIG EDDG 191720Z VRB02KT 9999 BKN038 14/09 Q1017 NOSIG EDDG 191650Z VRB03KT 9999 FEW042 14/09 Q1017 NOSIG EDDG 191620Z 09004KT 010V180 9999 SCT042 15/09 Q1017 NOSIG EDDG 191550Z 09005KT 010V150 9999 FEW025 SCT044 15/09 Q1016 NOSIG EDDG 191520Z 10006KT 360V170 9999 SCT039 16/09 Q1016 NOSIG

METAR Messwerte

Zurück zur Übersicht

Ort
m ü. NN
Zeit Temperatur Taupunkt Rel.
Luftfeuchte
Luftdruck:
Altimeter
NN
Station
Wind in Beaufort
(Knoten)
Sichtweite
(Meter)
Wolken
(Meter über Grund)
Wettererscheinung
Münster/Osnabrück
52
Di 21.09. 04:5066100 %1027
1027
1021
Windstill>= 10000Nicht signifikant 
Münster/Osnabrück
52
Di 21.09. 04:2066100 %1027
1027
1021
SSO 2 (3)>= 10000Nicht signifikantNebel-Bänke
Münster/Osnabrück
52
Di 21.09. 03:5077100 %1027
1027
1021
WSW 1 (1)>= 10000Nicht signifikantNebel-Bänke
Münster/Osnabrück
52
Di 21.09. 03:207693 %1027
1027
1021
Uml 1 (1)>= 10000Nicht signifikantNebel-Bänke
Münster/Osnabrück
52
Di 21.09. 02:5077100 %1027
1027
1021
Uml 1 (1)>= 10000Nicht signifikant 
Münster/Osnabrück
52
Di 21.09. 02:208793 %1027
1027
1021
Uml 1 (1)>= 10000Nicht signifikant 
Münster/Osnabrück
52
Di 21.09. 01:509893 %1027
1027
1021
Uml 1 (1)>= 10000Nicht signifikant 
Münster/Osnabrück
52
Di 21.09. 01:2010887 %1027
1027
1021
Uml 1 (2)>= 10000Nicht signifikant 
Münster/Osnabrück
52
Di 21.09. 00:5011882 %1026
1026
1020
Uml 1 (2)>= 10000Nicht signifikant 
Münster/Osnabrück
52
Di 21.09. 00:2011882 %1026
1026
1020
Uml 1 (1)>= 10000Nicht signifikant 
Münster/Osnabrück
52
Mo 20.09. 23:5012876 %1026
1026
1020
NO 2 (3)
N - O
>= 10000Nicht signifikant 
Münster/Osnabrück
52
Mo 20.09. 23:2011882 %1026
1026
1020
Uml 1 (2)>= 10000Nicht signifikant 
Münster/Osnabrück
52
Mo 20.09. 22:5011882 %1026
1026
1020
Uml 1 (2)>= 10000Nicht signifikant 
Münster/Osnabrück
52
Mo 20.09. 22:2011882 %1026
1026
1020
Uml 1 (2)>= 10000Nicht signifikant 
Münster/Osnabrück
52
Mo 20.09. 21:5011776 %1025
1025
1019
NNO 2 (4)
N - O
>= 10000Nicht signifikant 
Münster/Osnabrück
52
Mo 20.09. 21:2011882 %1025
1025
1019
Uml 1 (2)>= 10000Nicht signifikant 
Münster/Osnabrück
52
Mo 20.09. 20:5011776 %1025
1025
1019
Uml 1 (2)>= 10000Nicht signifikant 
Münster/Osnabrück
52
Mo 20.09. 20:2011776 %1024
1024
1018
Uml 1 (2)>= 10000Nicht signifikant 
Münster/Osnabrück
52
Mo 20.09. 19:5012876 %1024
1024
1018
Uml 1 (2)>= 10000Nicht signifikant 
Münster/Osnabrück
52
Mo 20.09. 19:2012771 %1024
1024
1018
Uml 1 (2)>= 10000Nicht signifikant 
Münster/Osnabrück
52
Mo 20.09. 18:5013767 %1023
1023
1017
NO 2 (3)
N - OSO
>= 10000Stark bewölkt (1500) 
Münster/Osnabrück
52
Mo 20.09. 18:2014763 %1023
1023
1017
NNO 2 (5)
N - ONO
>= 10000Stark bewölkt (1400)
Leicht bewölkt (1200)
 
Münster/Osnabrück
52
Mo 20.09. 17:5014658 %1023
1023
1017
ONO 2 (3)
NNO - SO
>= 10000Stark bewölkt (1500)
Leicht bewölkt (1200)
 
Münster/Osnabrück
52
Mo 20.09. 17:2014658 %1023
1023
1017
NO 2 (4)
N - OSO
>= 10000Stark bewölkt (1500) 
Münster/Osnabrück
52
Mo 20.09. 16:5014658 %1023
1023
1017
NO 2 (5)
N - OSO
>= 10000Stark bewölkt (1500) 
Münster/Osnabrück
52
Mo 20.09. 16:2015655 %1023
1023
1017
NNO 3 (7)
N - O
>= 10000Stark bewölkt (1400) 
Münster/Osnabrück
52
Mo 20.09. 15:5015551 %1023
1023
1017
ONO 2 (4)
N - SO
>= 10000Stark bewölkt (1500) 
Münster/Osnabrück
52
Mo 20.09. 15:2015551 %1022
1022
1016
ONO 2 (4)
NNO - SO
>= 10000Stark bewölkt (1500) 
Münster/Osnabrück
52
Mo 20.09. 14:5014555 %1022
1022
1016
O 2 (4)
NNO - SO
>= 10000Stark bewölkt (1500) 
Münster/Osnabrück
52
Mo 20.09. 14:2015551 %1022
1022
1016
NO 2 (5)
N - OSO
>= 10000Stark bewölkt (1400) 
Münster/Osnabrück
52
Mo 20.09. 13:5015551 %1022
1022
1016
NO 3 (8)
N - OSO
>= 10000Stark bewölkt (1400) 
Münster/Osnabrück
52
Mo 20.09. 13:2015551 %1022
1022
1016
Uml 2 (6)>= 10000Stark bewölkt (1400) 
Münster/Osnabrück
52
Mo 20.09. 12:5014555 %1022
1022
1016
ONO 2 (4)
N - SO
>= 10000Stark bewölkt (1400) 
Münster/Osnabrück
52
Mo 20.09. 12:2014555 %1022
1022
1016
ONO 2 (6)
N - SO
>= 10000Stark bewölkt (1500) 
Münster/Osnabrück
52
Mo 20.09. 11:5015655 %1022
1022
1016
Uml 3 (7)>= 10000Leicht bewölkt (1200) 
Münster/Osnabrück
52
Mo 20.09. 11:2015759 %1021
1021
1015
O 3 (7)
NNO - SSO
>= 10000Nicht signifikant 
Münster/Osnabrück
52
Mo 20.09. 10:5014867 %1021
1021
1015
O 2 (5)
N - SO
>= 10000Stark bewölkt (1500) 
Münster/Osnabrück
52
Mo 20.09. 10:2013977 %1021
1021
1015
Uml 2 (4)>= 10000Stark bewölkt (1500) 
Münster/Osnabrück
52
Mo 20.09. 09:50131082 %1021
1021
1015
NO 2 (3)
NNW - OSO
>= 10000Stark bewölkt (1500) 
Münster/Osnabrück
52
Mo 20.09. 09:2012982 %1020
1020
1014
ONO 2 (3)
NNW - SO
>= 10000Stark bewölkt (1500) 
Münster/Osnabrück
52
Mo 20.09. 08:5011987 %1020
1020
1014
ONO 2 (3)
N - SO
>= 10000Stark bewölkt (1500) 
Münster/Osnabrück
52
Mo 20.09. 08:2011987 %1020
1020
1014
ONO 2 (3)
N - SSO
>= 10000Stark bewölkt (1500) 
Münster/Osnabrück
52
Mo 20.09. 07:5010887 %1020
1020
1014
NO 2 (3)
N - O
>= 10000Stark bewölkt (1400) 
Münster/Osnabrück
52
Mo 20.09. 07:209787 %1020
1020
1014
NO 2 (3)
NNO - O
>= 10000Stark bewölkt (1400) 
Münster/Osnabrück
52
Mo 20.09. 06:509787 %1019
1019
1013
ONO 2 (3)
N - O
>= 10000Leicht bewölkt (1400) 
Münster/Osnabrück
52
Mo 20.09. 06:209787 %1019
1019
1013
NO 2 (4)
NNO - O
>= 10000Leicht bewölkt (1200) 
Münster/Osnabrück
52
Mo 20.09. 05:509787 %1019
1019
1013
ONO 2 (3)
NNO - O
>= 10000Leicht bewölkt (1200) 
Münster/Osnabrück
52
Mo 20.09. 05:2010782 %1019
1019
1013
ONO 2 (3)
NNO - O
>= 10000Leicht bewölkt (1200) 
Münster/Osnabrück
52
Mo 20.09. 04:5010782 %1019
1019
1013
ONO 2 (3)>= 10000Leicht bewölkt (1200) 
Münster/Osnabrück
52
Mo 20.09. 04:2010887 %1019
1019
1013
ONO 2 (3)
NNO - O
>= 10000Leicht bewölkt (1300) 
Münster/Osnabrück
52
Mo 20.09. 03:5011882 %1019
1019
1013
NO 2 (3)>= 10000Leicht bewölkt (1300) 
Münster/Osnabrück
52
Mo 20.09. 03:2012876 %1019
1019
1013
NO 2 (3)
NNO - O
>= 10000Stark bewölkt (1300) 
Münster/Osnabrück
52
Mo 20.09. 02:5012876 %1019
1019
1013
NO 2 (3)
NNO - O
>= 10000Stark bewölkt (1300) 
Münster/Osnabrück
52
Mo 20.09. 02:2012876 %1019
1019
1013
Uml 1 (2)>= 10000Stark bewölkt (1300) 
Münster/Osnabrück
52
Mo 20.09. 01:5012876 %1019
1019
1013
ONO 2 (3)
NNO - OSO
>= 10000Stark bewölkt (1200) 
Münster/Osnabrück
52
Mo 20.09. 01:2012876 %1019
1019
1013
Uml 1 (2)>= 10000Bedeckt (1200) 
Münster/Osnabrück
52
Mo 20.09. 00:5012876 %1019
1019
1013
Uml 1 (2)>= 10000Bedeckt (1200) 
Münster/Osnabrück
52
Mo 20.09. 00:2012876 %1018
1018
1012
Uml 1 (2)>= 10000Stark bewölkt (1100) 
Münster/Osnabrück
52
So 19.09. 23:5013872 %1018
1018
1012
Uml 1 (2)>= 10000Stark bewölkt (1100) 
Münster/Osnabrück
52
So 19.09. 23:2013767 %1018
1018
1012
Uml 1 (2)>= 10000Bedeckt (1100) 
Münster/Osnabrück
52
So 19.09. 22:5013767 %1018
1018
1012
Uml 2 (3)>= 10000Bedeckt (1100) 
Münster/Osnabrück
52
So 19.09. 22:2013872 %1018
1018
1012
Uml 2 (3)>= 10000Bedeckt (1100) 
Münster/Osnabrück
52
So 19.09. 21:5013872 %1018
1018
1012
O 2 (4)
NNO - SO
>= 10000Bedeckt (1100) 
Münster/Osnabrück
52
So 19.09. 21:2013872 %1018
1018
1012
O 2 (4)
N - SSO
>= 10000Stark bewölkt (1200) 
Münster/Osnabrück
52
So 19.09. 20:5013872 %1018
1018
1012
Uml 1 (2)>= 10000Stark bewölkt (1200) 
Münster/Osnabrück
52
So 19.09. 20:2013872 %1017
1017
1011
ONO 2 (3)
N - SO
>= 10000Stark bewölkt (1200) 
Münster/Osnabrück
52
So 19.09. 19:5014972 %1017
1017
1011
Uml 1 (2)>= 10000Stark bewölkt (1200) 
Münster/Osnabrück
52
So 19.09. 19:2014972 %1017
1017
1011
Uml 1 (2)>= 10000Stark bewölkt (1200) 
Münster/Osnabrück
52
So 19.09. 18:5014972 %1017
1017
1011
Uml 2 (3)>= 10000Leicht bewölkt (1300) 
Münster/Osnabrück
52
So 19.09. 18:2015967 %1017
1017
1011
O 2 (4)
N - S
>= 10000Wolkig (1300) 
Münster/Osnabrück
52
So 19.09. 17:5015967 %1016
1016
1010
O 2 (5)
N - SSO
>= 10000Wolkig (1300)
Leicht bewölkt (760)
 
Münster/Osnabrück
52
So 19.09. 17:2016963 %1016
1016
1010
O 2 (6)
N - S
>= 10000Wolkig (1200) 

Altimeter: Einstellung am Altimeter (Höhenmesser), die Höhe 0 muss auf diesen Luftdruckwert zeigen, damit das Gerät die Stationshöhe richtig anzeigt.

NN: Luftdruck reduziert auf "Normal Null", auf Meereshöhe, dieser von der Temperatur abhängige Wert wird bisweilen unkorrekt einfach als "Luftdruck" bezeichnet. Eigentlich nur eine fiktive Größe, die es erlaubt, Stationen auf unterschiedlichen Höhen miteinander zu vergleichen.

Station: Realer Luftdruck an der Station.